createdAt,value
2023-03-06T00:00:44.666Z,9.18
2023-03-06T00:03:13.369Z,10.02
2023-03-06T00:05:42.249Z,9.17
2023-03-06T00:08:10.742Z,10.65
2023-03-06T00:10:41.175Z,9.68
2023-03-06T00:13:15.185Z,9.85
2023-03-06T00:15:43.928Z,10.13
2023-03-06T00:18:12.515Z,10.37
2023-03-06T00:20:43.948Z,9.75
2023-03-06T00:23:13.209Z,10.10
2023-03-06T00:25:43.823Z,9.93
2023-03-06T00:28:15.788Z,10.77
2023-03-06T00:30:46.021Z,10.23
2023-03-06T00:33:14.713Z,10.75
2023-03-06T00:35:43.726Z,10.60
2023-03-06T00:38:16.443Z,10.77
2023-03-06T00:40:45.120Z,10.25
2023-03-06T00:43:14.938Z,10.53
2023-03-06T00:45:43.978Z,10.25
2023-03-06T00:48:12.597Z,9.75
2023-03-06T00:50:41.009Z,9.93
2023-03-06T00:53:11.209Z,10.38
2023-03-06T00:55:39.829Z,10.13
2023-03-06T00:58:08.369Z,9.18
2023-03-06T01:00:38.152Z,9.43
2023-03-06T01:03:08.308Z,10.32
2023-03-06T01:05:38.029Z,10.23
2023-03-06T01:08:08.888Z,10.43
2023-03-06T01:10:40.168Z,10.65
2023-03-06T01:13:08.773Z,10.43
2023-03-06T01:15:38.457Z,10.68
2023-03-06T01:18:07.065Z,10.95
2023-03-06T01:20:38.172Z,10.60
2023-03-06T01:23:08.275Z,10.57
2023-03-06T01:25:36.844Z,10.43
2023-03-06T01:28:05.539Z,11.23
2023-03-06T01:30:34.190Z,11.15
2023-03-06T01:33:04.127Z,10.90
2023-03-06T01:35:32.698Z,11.20
2023-03-06T01:38:01.572Z,10.90
2023-03-06T01:40:32.835Z,11.25
2023-03-06T01:43:10.637Z,11.25
2023-03-06T01:46:16.251Z,10.07
2023-03-06T01:48:52.362Z,11.02
2023-03-06T01:51:20.929Z,11.48
2023-03-06T01:53:52.275Z,10.57
2023-03-06T01:56:23.541Z,11.45
2023-03-06T01:58:53.029Z,11.47
2023-03-06T02:01:21.753Z,11.57
2023-03-06T02:03:52.443Z,11.00
2023-03-06T02:06:22.022Z,10.95
2023-03-06T02:08:52.188Z,11.40
2023-03-06T02:11:22.631Z,10.83
2023-03-06T02:13:53.122Z,12.10
2023-03-06T02:16:25.084Z,10.68
2023-03-06T02:18:55.125Z,10.68
2023-03-06T02:21:26.584Z,11.23
2023-03-06T02:24:12.352Z,11.43
2023-03-06T02:26:43.483Z,10.20
2023-03-06T02:29:12.126Z,11.23
2023-03-06T02:31:46.005Z,11.18
2023-03-06T02:34:50.012Z,11.07
2023-03-06T02:37:18.581Z,11.90
2023-03-06T02:39:50.151Z,11.32
2023-03-06T02:42:22.530Z,11.68
2023-03-06T02:44:52.422Z,11.68
2023-03-06T02:47:21.233Z,10.85
2023-03-06T02:49:49.909Z,11.53
2023-03-06T02:52:25.658Z,10.73
2023-03-06T02:54:54.289Z,10.63
2023-03-06T02:57:24.008Z,10.98
2023-03-06T02:59:52.520Z,10.48
2023-03-06T03:02:21.251Z,10.93
2023-03-06T03:04:50.023Z,10.98
2023-03-06T03:07:19.608Z,11.32
2023-03-06T03:09:49.000Z,10.50
2023-03-06T03:12:17.751Z,11.00
2023-03-06T03:14:47.545Z,11.10
2023-03-06T03:17:16.405Z,10.15
2023-03-06T03:19:44.954Z,10.35
2023-03-06T03:22:13.620Z,9.80
2023-03-06T03:24:42.527Z,10.65
2023-03-06T03:27:12.222Z,10.17
2023-03-06T03:29:41.108Z,10.77
2023-03-06T03:32:10.909Z,11.18
2023-03-06T03:34:39.382Z,10.40
2023-03-06T03:37:10.384Z,10.43
2023-03-06T03:39:40.814Z,10.00
2023-03-06T03:42:09.600Z,10.90
2023-03-06T03:44:38.413Z,9.90
2023-03-06T03:47:07.700Z,9.93
2023-03-06T03:49:40.910Z,9.82
2023-03-06T03:52:10.292Z,10.67
2023-03-06T03:54:40.232Z,10.50
2023-03-06T03:57:08.795Z,10.60
2023-03-06T03:59:41.593Z,10.18
2023-03-06T04:02:24.765Z,10.25
2023-03-06T04:05:09.315Z,10.13
2023-03-06T04:07:37.940Z,10.35
2023-03-06T04:10:06.865Z,10.15
2023-03-06T04:12:36.663Z,10.52
2023-03-06T04:15:06.059Z,9.98
2023-03-06T04:17:35.156Z,11.03
2023-03-06T04:20:08.129Z,10.45
2023-03-06T04:22:36.814Z,11.20
2023-03-06T04:25:05.500Z,11.35
2023-03-06T04:27:34.195Z,10.50
2023-03-06T04:30:03.314Z,9.13
2023-03-06T04:32:34.954Z,10.63
2023-03-06T04:35:03.793Z,9.75
2023-03-06T04:37:38.563Z,9.57
2023-03-06T04:40:10.701Z,9.07
2023-03-06T04:42:39.246Z,9.00
2023-03-06T04:45:12.941Z,9.82
2023-03-06T04:47:52.749Z,9.48
2023-03-06T04:50:22.358Z,9.77
2023-03-06T04:52:54.080Z,9.75
2023-03-06T04:55:22.653Z,8.93
2023-03-06T04:57:51.264Z,9.52
2023-03-06T05:00:21.850Z,9.23
2023-03-06T05:02:51.084Z,9.68
2023-03-06T05:05:20.112Z,10.07
2023-03-06T05:07:48.716Z,8.83
2023-03-06T05:10:20.294Z,9.25
2023-03-06T05:12:48.874Z,8.85
2023-03-06T05:15:17.552Z,10.00
2023-03-06T05:17:46.548Z,9.20
2023-03-06T05:20:16.328Z,9.00
2023-03-06T05:22:44.914Z,9.13
2023-03-06T05:25:13.630Z,8.73
2023-03-06T05:27:43.276Z,8.32
2023-03-06T05:30:13.955Z,8.13
2023-03-06T05:32:42.922Z,8.40
2023-03-06T05:35:18.505Z,8.65
2023-03-06T05:37:47.080Z,9.02
2023-03-06T05:40:17.338Z,7.88
2023-03-06T05:42:46.881Z,8.15
2023-03-06T05:45:15.523Z,8.17
2023-03-06T05:47:43.966Z,8.85
2023-03-06T05:50:14.034Z,8.93
2023-03-06T05:52:42.603Z,8.10
2023-03-06T05:55:13.473Z,8.85
2023-03-06T05:57:41.927Z,9.57
2023-03-06T06:00:13.086Z,8.75
2023-03-06T06:02:41.649Z,9.23
2023-03-06T06:05:12.904Z,9.05
2023-03-06T06:07:41.531Z,9.48
2023-03-06T06:10:12.121Z,9.03
2023-03-06T06:12:40.615Z,8.73
2023-03-06T06:15:09.412Z,8.75
2023-03-06T06:17:38.897Z,9.32
2023-03-06T06:20:07.992Z,8.65
2023-03-06T06:22:38.758Z,8.50
2023-03-06T06:25:07.856Z,8.48
2023-03-06T06:27:36.301Z,8.65
2023-03-06T06:30:04.727Z,7.93
2023-03-06T06:32:33.094Z,7.45
2023-03-06T06:35:02.729Z,7.13
2023-03-06T06:37:31.124Z,8.30
2023-03-06T06:39:59.488Z,8.27
2023-03-06T06:42:34.584Z,7.53
2023-03-06T06:45:03.993Z,7.85
2023-03-06T06:47:33.057Z,8.00
2023-03-06T06:50:02.537Z,8.20
2023-03-06T06:52:30.873Z,7.88
2023-03-06T06:54:59.378Z,8.48
2023-03-06T06:57:27.796Z,7.57
2023-03-06T06:59:56.169Z,7.60
2023-03-06T07:02:24.784Z,7.93
2023-03-06T07:05:03.624Z,7.45
2023-03-06T07:07:35.523Z,7.72
2023-03-06T07:10:05.553Z,8.85
2023-03-06T07:12:35.360Z,8.20
2023-03-06T07:15:04.175Z,7.88
2023-03-06T07:17:32.675Z,9.00
2023-03-06T07:20:01.015Z,7.78
2023-03-06T07:22:35.876Z,8.13
2023-03-06T07:25:12.148Z,8.07
2023-03-06T07:27:45.461Z,8.70
2023-03-06T07:30:15.704Z,7.93
2023-03-06T07:32:44.245Z,8.40
2023-03-06T07:35:20.092Z,8.00
2023-03-06T07:37:57.787Z,7.53
2023-03-06T07:40:30.023Z,8.18
2023-03-06T07:43:12.956Z,8.45
2023-03-06T07:45:57.403Z,7.10
2023-03-06T07:48:25.941Z,8.82
2023-03-06T07:50:58.807Z,8.50
2023-03-06T07:53:29.983Z,8.48
2023-03-06T07:55:59.574Z,7.40
2023-03-06T07:58:28.330Z,7.90
2023-03-06T08:00:56.839Z,8.32
2023-03-06T08:03:25.284Z,8.87
2023-03-06T08:05:53.842Z,7.50
2023-03-06T08:08:22.374Z,9.30
2023-03-06T08:10:50.994Z,20.30
2023-03-06T08:13:20.459Z,8.07
2023-03-06T08:15:50.092Z,8.57
2023-03-06T08:18:18.460Z,8.20
2023-03-06T08:20:46.827Z,8.57
2023-03-06T08:23:15.296Z,7.57
2023-03-06T08:25:46.682Z,8.25
2023-03-06T08:28:15.034Z,7.40
2023-03-06T08:30:44.441Z,7.95
2023-03-06T08:33:12.800Z,7.97
2023-03-06T08:35:41.304Z,8.40
2023-03-06T08:38:09.768Z,8.93
2023-03-06T08:40:38.164Z,7.97
2023-03-06T08:43:06.727Z,8.27
2023-03-06T08:45:35.615Z,7.97
2023-03-06T08:48:05.385Z,8.35
2023-03-06T08:50:33.827Z,9.02
2023-03-06T08:53:02.211Z,8.97
2023-03-06T08:55:30.657Z,8.50
2023-03-06T08:57:59.503Z,7.97
2023-03-06T09:00:28.093Z,8.73
2023-03-06T09:02:58.318Z,9.15
2023-03-06T09:05:27.981Z,9.30
2023-03-06T09:07:56.575Z,9.43
2023-03-06T09:10:26.402Z,9.18
2023-03-06T09:12:55.885Z,9.10
2023-03-06T09:15:24.997Z,9.63
2023-03-06T09:17:56.875Z,10.30
2023-03-06T09:20:25.348Z,9.60
2023-03-06T09:22:54.830Z,9.73
2023-03-06T09:25:23.358Z,9.80
2023-03-06T09:28:08.743Z,9.40
2023-03-06T09:30:38.933Z,10.13
2023-03-06T09:33:07.381Z,9.13
2023-03-06T09:35:35.931Z,9.00
2023-03-06T09:38:08.340Z,9.90
2023-03-06T09:40:46.699Z,8.65
2023-03-06T09:43:22.032Z,9.40
2023-03-06T09:45:50.597Z,9.80
2023-03-06T09:48:23.736Z,9.13
2023-03-06T09:50:56.786Z,8.82
2023-03-06T09:53:39.445Z,8.27
2023-03-06T09:56:15.897Z,8.17
2023-03-06T09:58:48.421Z,9.65
2023-03-06T10:01:22.136Z,8.05
2023-03-06T10:03:55.333Z,8.90
2023-03-06T10:06:29.814Z,8.90
2023-03-06T10:09:03.408Z,8.60
2023-03-06T10:11:37.645Z,8.52
2023-03-06T10:14:17.148Z,8.77
2023-03-06T10:16:45.490Z,9.57
2023-03-06T10:19:16.435Z,8.57
2023-03-06T10:21:51.265Z,8.90
2023-03-06T10:24:37.662Z,8.95
2023-03-06T10:27:16.689Z,9.07
2023-03-06T10:30:02.755Z,9.20
2023-03-06T10:32:48.284Z,9.73
2023-03-06T10:35:21.437Z,8.77
2023-03-06T10:37:52.987Z,9.73
2023-03-06T10:40:24.072Z,8.98
2023-03-06T10:43:09.371Z,8.57
2023-03-06T10:45:49.601Z,9.70
2023-03-06T10:48:21.551Z,9.40
2023-03-06T10:50:50.117Z,8.70
2023-03-06T10:53:23.043Z,9.02
2023-03-06T10:55:58.301Z,8.90
2023-03-06T10:58:29.098Z,7.85
2023-03-06T11:01:09.551Z,8.30
2023-03-06T11:03:38.198Z,8.70
2023-03-06T11:06:31.435Z,7.82
2023-03-06T11:09:16.471Z,8.90
2023-03-06T11:11:46.074Z,7.72
2023-03-06T11:14:18.349Z,10.27
2023-03-06T11:16:53.216Z,13.25
2023-03-06T11:19:25.669Z,10.05
2023-03-06T11:22:03.208Z,8.07
2023-03-06T11:24:38.390Z,8.23
2023-03-06T11:27:23.269Z,7.63
2023-03-06T11:29:54.278Z,8.38
2023-03-06T11:32:26.180Z,7.22
2023-03-06T11:34:58.710Z,8.07
2023-03-06T11:37:37.684Z,9.18
2023-03-06T11:40:14.768Z,8.03
2023-03-06T11:42:49.041Z,8.80
2023-03-06T11:45:27.463Z,8.63
2023-03-06T11:48:02.128Z,7.97
2023-03-06T11:50:35.634Z,8.27
2023-03-06T11:53:06.217Z,8.27
2023-03-06T11:55:45.206Z,8.35
2023-03-06T11:58:51.864Z,8.45
2023-03-06T12:01:28.358Z,8.68
2023-03-06T12:04:12.259Z,8.02
2023-03-06T12:06:48.360Z,8.77
2023-03-06T12:09:31.664Z,8.68
2023-03-06T12:12:21.656Z,8.02
2023-03-06T12:15:04.903Z,9.07
2023-03-06T12:17:47.493Z,8.13
2023-03-06T12:20:27.173Z,7.77
2023-03-06T12:23:14.438Z,8.32
2023-03-06T12:25:45.110Z,8.25
2023-03-06T12:28:34.973Z,7.68
2023-03-06T12:31:27.871Z,7.75
2023-03-06T12:34:04.887Z,7.70
2023-03-06T12:36:47.120Z,7.60
2023-03-06T12:39:28.378Z,7.47
2023-03-06T12:42:29.222Z,7.13
2023-03-06T12:45:29.979Z,6.95
2023-03-06T12:48:02.440Z,7.57
2023-03-06T12:50:37.004Z,7.05
2023-03-06T12:53:17.535Z,7.05
2023-03-06T12:56:02.706Z,6.97
2023-03-06T12:58:51.676Z,7.03
2023-03-06T13:02:01.206Z,6.07
2023-03-06T13:04:53.637Z,6.68
2023-03-06T13:07:49.367Z,6.70
2023-03-06T13:10:34.262Z,6.22
2023-03-06T13:13:08.056Z,6.63
2023-03-06T13:15:47.435Z,5.63
2023-03-06T13:19:02.558Z,5.70
2023-03-06T13:22:14.381Z,6.05
2023-03-06T13:24:46.683Z,5.30
2023-03-06T13:27:41.267Z,5.45
2023-03-06T13:30:58.134Z,5.73
2023-03-06T13:34:05.860Z,6.30
2023-03-06T13:36:35.298Z,5.85
2023-03-06T13:39:08.595Z,5.18
2023-03-06T13:41:42.052Z,6.35
2023-03-06T13:44:47.308Z,5.60
2023-03-06T13:48:09.610Z,5.97
2023-03-06T13:50:40.790Z,5.20
2023-03-06T13:53:45.628Z,6.05
2023-03-06T13:56:40.017Z,5.80
2023-03-06T13:59:33.932Z,5.83
2023-03-06T14:02:15.153Z,5.38
2023-03-06T14:04:54.609Z,4.93
2023-03-06T14:07:28.433Z,5.88
2023-03-06T14:10:09.423Z,5.28
2023-03-06T14:12:42.521Z,4.80
2023-03-06T14:15:20.068Z,6.75
2023-03-06T14:17:57.449Z,5.72
2023-03-06T14:20:34.230Z,5.28
2023-03-06T14:23:16.415Z,5.22
2023-03-06T14:25:47.056Z,6.13
2023-03-06T14:28:25.571Z,6.13
2023-03-06T14:30:55.208Z,5.38
2023-03-06T14:33:34.010Z,5.82
2023-03-06T14:36:04.907Z,5.50
2023-03-06T14:38:37.326Z,5.67
2023-03-06T14:41:07.079Z,5.75
2023-03-06T14:43:36.701Z,4.97
2023-03-06T14:46:07.278Z,12.20
2023-03-06T14:48:42.717Z,5.63
2023-03-06T14:51:17.034Z,4.60
2023-03-06T14:53:46.948Z,5.47
2023-03-06T14:56:18.604Z,5.95
2023-03-06T14:58:54.621Z,5.45
2023-03-06T15:01:34.052Z,5.55
2023-03-06T15:04:03.484Z,5.03
2023-03-06T15:06:37.716Z,4.70
2023-03-06T15:09:09.761Z,5.97
2023-03-06T15:11:58.882Z,5.20
2023-03-06T15:14:37.287Z,5.20
2023-03-06T15:17:32.079Z,5.07
2023-03-06T15:20:01.700Z,4.50
2023-03-06T15:22:41.224Z,4.93
2023-03-06T15:25:26.891Z,5.32
2023-03-06T15:27:57.388Z,5.03
2023-03-06T15:30:30.333Z,5.30
2023-03-06T15:33:12.833Z,5.68
2023-03-06T15:35:41.422Z,4.95
2023-03-06T15:38:26.934Z,4.47
2023-03-06T15:40:56.938Z,4.38
2023-03-06T15:43:25.510Z,4.13
2023-03-06T15:45:59.696Z,4.93
2023-03-06T15:48:28.412Z,10.20
2023-03-06T15:50:59.341Z,5.10
2023-03-06T15:53:28.488Z,4.47
2023-03-06T15:55:56.930Z,4.67
2023-03-06T15:58:26.928Z,4.40
2023-03-06T16:00:56.511Z,4.90
2023-03-06T16:03:24.919Z,4.28
2023-03-06T16:05:53.380Z,4.03
2023-03-06T16:08:21.892Z,4.03
2023-03-06T16:10:51.912Z,3.88
2023-03-06T16:13:24.430Z,4.60
2023-03-06T16:15:52.907Z,4.78
2023-03-06T16:18:46.224Z,4.13
2023-03-06T16:21:15.389Z,4.00
2023-03-06T16:23:44.860Z,4.00
2023-03-06T16:26:20.542Z,4.40
2023-03-06T16:28:49.124Z,4.38
2023-03-06T16:31:17.579Z,4.00
2023-03-06T16:33:47.080Z,4.60
2023-03-06T16:36:20.816Z,4.45
2023-03-06T16:38:49.496Z,4.60
2023-03-06T16:41:18.194Z,4.75
2023-03-06T16:43:46.750Z,4.25
2023-03-06T16:46:18.766Z,4.57
2023-03-06T16:48:48.760Z,4.70
2023-03-06T16:51:20.490Z,5.00
2023-03-06T16:53:49.343Z,4.72
2023-03-06T16:56:19.078Z,4.03
2023-03-06T16:58:47.844Z,4.53
2023-03-06T17:01:18.396Z,4.97
2023-03-06T17:03:47.214Z,4.90
2023-03-06T17:06:19.880Z,4.25
2023-03-06T17:08:49.197Z,5.10
2023-03-06T17:11:17.949Z,4.20
2023-03-06T17:13:46.412Z,4.68
2023-03-06T17:16:17.106Z,4.82
2023-03-06T17:18:46.423Z,5.00
2023-03-06T17:21:15.851Z,5.13
2023-03-06T17:26:54.032Z,4.75
2023-03-06T17:29:29.143Z,5.70
2023-03-06T17:35:35.479Z,5.10
2023-03-06T17:38:04.421Z,5.33
2023-03-06T17:40:49.233Z,4.55
2023-03-06T17:43:34.282Z,4.82
2023-03-06T17:46:04.523Z,5.60
2023-03-06T17:48:33.282Z,4.85
2023-03-06T17:51:04.922Z,6.10
2023-03-06T17:53:33.892Z,5.78
2023-03-06T17:56:04.893Z,6.07
2023-03-06T17:58:33.546Z,6.00
2023-03-06T18:01:57.869Z,7.00
2023-03-06T18:04:16.951Z,7.20
2023-03-06T18:06:45.470Z,6.60
2023-03-06T18:09:13.944Z,7.55
2023-03-06T18:11:43.564Z,6.97
2023-03-06T18:14:13.201Z,6.68
2023-03-06T18:16:41.828Z,6.67
2023-03-06T18:19:12.034Z,7.25
2023-03-06T18:21:40.690Z,7.28
2023-03-06T18:24:11.101Z,6.70
2023-03-06T18:26:43.782Z,6.43
2023-03-06T18:29:13.426Z,6.97
2023-03-06T18:31:42.923Z,5.85
2023-03-06T18:34:18.518Z,6.60
2023-03-06T18:36:51.571Z,6.05
2023-03-06T18:39:22.116Z,6.60
2023-03-06T18:41:52.274Z,6.10
2023-03-06T18:47:52.655Z,5.85
2023-03-06T18:50:21.369Z,5.90
2023-03-06T18:52:50.001Z,4.90
2023-03-06T18:55:18.798Z,5.70
2023-03-06T18:57:48.918Z,5.47
2023-03-06T19:00:18.498Z,5.68
2023-03-06T19:02:47.155Z,5.72
2023-03-06T19:05:15.805Z,6.05
2023-03-06T19:08:03.258Z,6.47
2023-03-06T19:10:45.279Z,5.95
2023-03-06T19:13:18.717Z,5.82
2023-03-06T19:15:48.723Z,5.20
2023-03-06T19:19:14.804Z,5.47
2023-03-06T19:21:45.382Z,5.97
2023-03-06T19:24:16.845Z,6.00
2023-03-06T19:26:45.572Z,5.25
2023-03-06T19:29:20.386Z,5.78
2023-03-06T19:31:50.981Z,5.97
2023-03-06T19:34:19.708Z,5.80
2023-03-06T19:36:51.080Z,5.32
2023-03-06T19:39:20.996Z,5.88
2023-03-06T19:41:49.663Z,6.20
2023-03-06T19:44:18.261Z,6.70
2023-03-06T19:46:49.763Z,6.30
2023-03-06T19:49:24.721Z,5.63
2023-03-06T19:51:53.336Z,5.25
2023-03-06T19:54:24.842Z,5.30
2023-03-06T19:56:53.451Z,5.35
2023-03-06T19:59:22.852Z,4.87
2023-03-06T20:01:52.572Z,5.40
2023-03-06T20:04:21.328Z,5.47
2023-03-06T20:06:51.680Z,5.32
2023-03-06T20:09:25.151Z,4.72
2023-03-06T20:11:53.761Z,4.97
2023-03-06T20:14:22.375Z,5.15
2023-03-06T20:16:50.938Z,4.72
2023-03-06T20:19:21.955Z,5.85
2023-03-06T20:21:57.129Z,5.10
2023-03-06T20:24:26.098Z,4.80
2023-03-06T20:26:57.581Z,8.48
2023-03-06T20:29:28.445Z,11.00
2023-03-06T20:31:57.034Z,6.50
2023-03-06T20:34:27.174Z,19.65
2023-03-06T20:36:56.871Z,8.03
2023-03-06T20:39:25.466Z,8.73
2023-03-06T20:41:54.159Z,6.20
2023-03-06T20:44:23.121Z,7.93
2023-03-06T20:46:52.074Z,9.35
2023-03-06T20:49:20.749Z,7.60
2023-03-06T20:51:51.022Z,9.07
2023-03-06T20:54:19.577Z,6.55
2023-03-06T20:56:50.234Z,6.10
2023-03-06T20:59:19.205Z,6.30
2023-03-06T21:01:48.089Z,20.77
2023-03-06T21:04:16.924Z,18.58
2023-03-06T21:06:47.010Z,6.50
2023-03-06T21:09:18.097Z,11.20
2023-03-06T21:11:46.621Z,8.23
2023-03-06T21:14:15.371Z,10.53
2023-03-06T21:16:44.113Z,7.93
2023-03-06T21:19:12.695Z,6.82
2023-03-06T21:21:43.327Z,12.48
2023-03-06T21:24:12.187Z,9.90
2023-03-06T21:26:41.848Z,18.90
2023-03-06T21:29:10.425Z,10.70
2023-03-06T21:31:39.316Z,6.10
2023-03-06T21:34:08.020Z,5.90
2023-03-06T21:36:36.643Z,5.40
2023-03-06T21:39:06.809Z,6.00
2023-03-06T21:41:35.901Z,5.30
2023-03-06T21:44:06.979Z,5.80
2023-03-06T21:46:35.910Z,5.45
2023-03-06T21:49:26.031Z,5.53
2023-03-06T21:51:57.648Z,27.13
2023-03-06T21:54:26.998Z,8.43
2023-03-06T21:56:55.759Z,11.98
2023-03-06T21:59:25.855Z,9.38
2023-03-06T22:01:54.414Z,8.35
2023-03-06T22:04:25.546Z,6.53
2023-03-06T22:06:56.511Z,6.60
2023-03-06T22:09:24.888Z,7.93
2023-03-06T22:11:53.211Z,13.10
2023-03-06T22:14:21.741Z,6.85
2023-03-06T22:16:52.538Z,4.90
2023-03-06T22:19:20.921Z,5.45
2023-03-06T22:21:49.506Z,12.20
2023-03-06T22:24:18.066Z,6.57
2023-03-06T22:26:46.466Z,18.40
2023-03-06T22:29:14.862Z,7.80
2023-03-06T22:31:43.295Z,7.72
2023-03-06T22:34:12.675Z,5.55
2023-03-06T22:36:41.285Z,5.13
2023-03-06T22:39:10.111Z,6.18
2023-03-06T22:41:38.457Z,5.63
2023-03-06T22:44:07.098Z,5.68
2023-03-06T22:46:35.531Z,18.48
2023-03-06T22:49:05.014Z,7.53
2023-03-06T22:51:37.484Z,5.50
2023-03-06T22:54:06.038Z,5.40
2023-03-06T22:56:34.687Z,4.68
2023-03-06T22:59:03.537Z,5.22
2023-03-06T23:01:33.261Z,4.70
2023-03-06T23:04:03.021Z,5.10
2023-03-06T23:06:33.152Z,4.80
2023-03-06T23:09:05.835Z,4.82
2023-03-06T23:11:53.097Z,4.88
2023-03-06T23:14:40.300Z,4.47
2023-03-06T23:17:27.645Z,5.45
2023-03-06T23:20:14.797Z,4.83
2023-03-06T23:23:01.783Z,5.63
2023-03-06T23:25:46.169Z,4.82
2023-03-06T23:28:14.658Z,5.25
2023-03-06T23:30:43.299Z,5.05
2023-03-06T23:33:12.368Z,4.93
2023-03-06T23:35:40.969Z,5.60
2023-03-06T23:38:09.389Z,4.97
2023-03-06T23:40:39.269Z,5.60
2023-03-06T23:43:08.831Z,4.70
2023-03-06T23:45:37.181Z,4.80
2023-03-06T23:48:07.253Z,4.93
2023-03-06T23:50:35.751Z,4.57
2023-03-06T23:53:04.149Z,4.93
2023-03-06T23:55:32.668Z,5.20
2023-03-06T23:58:01.015Z,5.40
